sensor_id;sensor_type;location;lat;lon;timestamp;P1;durP1;ratioP1;P2;durP2;ratioP2
63699;SDS011;49845;47.130;142.766;2023-05-27T00:02:28;16.73;;;4.50;;
63699;SDS011;49845;47.130;142.766;2023-05-27T00:05:00;7.27;;;4.07;;
63699;SDS011;49845;47.130;142.766;2023-05-27T00:07:31;11.00;;;4.60;;
63699;SDS011;49845;47.130;142.766;2023-05-27T00:10:01;9.23;;;4.20;;
63699;SDS011;49845;47.130;142.766;2023-05-27T00:12:33;7.13;;;4.00;;
63699;SDS011;49845;47.130;142.766;2023-05-27T00:15:03;8.13;;;3.87;;
63699;SDS011;49845;47.130;142.766;2023-05-27T00:17:35;7.73;;;4.47;;
63699;SDS011;49845;47.130;142.766;2023-05-27T00:20:08;8.60;;;3.97;;
63699;SDS011;49845;47.130;142.766;2023-05-27T00:22:40;8.60;;;4.37;;
63699;SDS011;49845;47.130;142.766;2023-05-27T00:25:11;11.90;;;4.67;;
63699;SDS011;49845;47.130;142.766;2023-05-27T00:27:41;9.83;;;4.20;;
63699;SDS011;49845;47.130;142.766;2023-05-27T00:30:12;8.60;;;3.83;;
63699;SDS011;49845;47.130;142.766;2023-05-27T00:32:43;8.73;;;3.83;;
63699;SDS011;49845;47.130;142.766;2023-05-27T00:35:16;9.17;;;3.97;;
63699;SDS011;49845;47.130;142.766;2023-05-27T00:37:47;9.23;;;3.57;;
63699;SDS011;49845;47.130;142.766;2023-05-27T00:40:19;10.80;;;3.93;;
63699;SDS011;49845;47.130;142.766;2023-05-27T00:42:51;10.30;;;3.93;;
63699;SDS011;49845;47.130;142.766;2023-05-27T00:45:21;8.50;;;3.53;;
63699;SDS011;49845;47.130;142.766;2023-05-27T00:47:52;10.90;;;3.80;;
63699;SDS011;49845;47.130;142.766;2023-05-27T00:50:24;10.20;;;3.30;;
63699;SDS011;49845;47.130;142.766;2023-05-27T00:52:54;12.70;;;3.97;;
63699;SDS011;49845;47.130;142.766;2023-05-27T00:55:26;7.50;;;3.27;;
63699;SDS011;49845;47.130;142.766;2023-05-27T00:57:56;5.63;;;3.43;;
63699;SDS011;49845;47.130;142.766;2023-05-27T01:00:28;7.07;;;3.33;;
63699;SDS011;49845;47.130;142.766;2023-05-27T01:02:59;9.83;;;3.33;;
63699;SDS011;49845;47.130;142.766;2023-05-27T01:05:31;8.50;;;3.40;;
63699;SDS011;49845;47.130;142.766;2023-05-27T01:08:04;6.17;;;2.90;;
63699;SDS011;49845;47.130;142.766;2023-05-27T01:10:42;9.63;;;3.22;;
63699;SDS011;49845;47.130;142.766;2023-05-27T01:13:20;7.30;;;3.17;;
63699;SDS011;49845;47.130;142.766;2023-05-27T01:16:01;5.97;;;3.00;;
63699;SDS011;49845;47.130;142.766;2023-05-27T01:18:35;7.80;;;3.17;;
63699;SDS011;49845;47.130;142.766;2023-05-27T01:21:18;9.53;;;3.37;;
63699;SDS011;49845;47.130;142.766;2023-05-27T01:23:53;8.00;;;3.30;;
63699;SDS011;49845;47.130;142.766;2023-05-27T01:26:24;23.53;;;4.57;;
63699;SDS011;49845;47.130;142.766;2023-05-27T01:28:54;6.33;;;3.57;;
63699;SDS011;49845;47.130;142.766;2023-05-27T01:31:28;9.10;;;3.70;;
63699;SDS011;49845;47.130;142.766;2023-05-27T01:34:06;14.30;;;3.83;;
63699;SDS011;49845;47.130;142.766;2023-05-27T01:36:40;10.33;;;4.00;;
63699;SDS011;49845;47.130;142.766;2023-05-27T01:39:16;41.40;;;5.00;;
63699;SDS011;49845;47.130;142.766;2023-05-27T01:41:47;19.10;;;3.80;;
63699;SDS011;49845;47.130;142.766;2023-05-27T01:44:18;9.30;;;3.40;;
63699;SDS011;49845;47.130;142.766;2023-05-27T01:46:50;9.73;;;3.10;;
63699;SDS011;49845;47.130;142.766;2023-05-27T01:49:22;7.10;;;3.07;;
63699;SDS011;49845;47.130;142.766;2023-05-27T01:51:53;12.73;;;3.40;;
63699;SDS011;49845;47.130;142.766;2023-05-27T01:54:25;6.03;;;3.10;;
63699;SDS011;49845;47.130;142.766;2023-05-27T01:56:55;9.60;;;3.60;;
63699;SDS011;49845;47.130;142.766;2023-05-27T01:59:26;10.83;;;3.07;;
63699;SDS011;49845;47.130;142.766;2023-05-27T02:01:57;8.90;;;3.60;;
63699;SDS011;49845;47.130;142.766;2023-05-27T02:04:28;8.40;;;3.57;;
63699;SDS011;49845;47.130;142.766;2023-05-27T02:06:58;9.07;;;3.30;;
63699;SDS011;49845;47.130;142.766;2023-05-27T02:09:31;19.87;;;4.13;;
63699;SDS011;49845;47.130;142.766;2023-05-27T02:12:01;45.17;;;14.10;;
63699;SDS011;49845;47.130;142.766;2023-05-27T02:14:33;12.87;;;4.27;;
63699;SDS011;49845;47.130;142.766;2023-05-27T02:17:06;8.03;;;3.43;;
63699;SDS011;49845;47.130;142.766;2023-05-27T02:19:36;11.20;;;3.43;;
63699;SDS011;49845;47.130;142.766;2023-05-27T02:22:07;9.10;;;3.70;;
63699;SDS011;49845;47.130;142.766;2023-05-27T02:24:39;13.30;;;3.57;;
63699;SDS011;49845;47.130;142.766;2023-05-27T02:27:10;10.97;;;3.33;;
63699;SDS011;49845;47.130;142.766;2023-05-27T02:29:41;13.70;;;3.50;;
63699;SDS011;49845;47.130;142.766;2023-05-27T02:32:12;11.33;;;3.33;;
63699;SDS011;49845;47.130;142.766;2023-05-27T02:34:42;11.23;;;4.70;;
63699;SDS011;49845;47.130;142.766;2023-05-27T02:37:13;18.80;;;3.57;;
63699;SDS011;49845;47.130;142.766;2023-05-27T02:39:45;17.07;;;3.67;;
63699;SDS011;49845;47.130;142.766;2023-05-27T02:42:15;12.60;;;3.20;;
63699;SDS011;49845;47.130;142.766;2023-05-27T02:44:46;9.73;;;3.17;;
63699;SDS011;49845;47.130;142.766;2023-05-27T02:47:17;12.03;;;2.77;;
63699;SDS011;49845;47.130;142.766;2023-05-27T02:49:48;14.77;;;3.10;;
63699;SDS011;49845;47.130;142.766;2023-05-27T02:52:18;9.33;;;2.87;;
63699;SDS011;49845;47.130;142.766;2023-05-27T02:54:51;13.70;;;2.93;;
63699;SDS011;49845;47.130;142.766;2023-05-27T02:57:21;11.10;;;2.93;;
63699;SDS011;49845;47.130;142.766;2023-05-27T02:59:52;5.73;;;2.70;;
63699;SDS011;49845;47.130;142.766;2023-05-27T03:02:23;6.67;;;2.97;;
63699;SDS011;49845;47.130;142.766;2023-05-27T03:04:54;44.67;;;7.70;;
63699;SDS011;49845;47.130;142.766;2023-05-27T03:07:24;44.70;;;4.87;;
63699;SDS011;49845;47.130;142.766;2023-05-27T03:09:58;7.30;;;2.80;;
63699;SDS011;49845;47.130;142.766;2023-05-27T03:12:28;10.50;;;3.17;;
63699;SDS011;49845;47.130;142.766;2023-05-27T03:14:59;15.73;;;3.10;;
63699;SDS011;49845;47.130;142.766;2023-05-27T03:17:30;30.73;;;3.60;;
63699;SDS011;49845;47.130;142.766;2023-05-27T03:20:00;17.40;;;3.70;;
63699;SDS011;49845;47.130;142.766;2023-05-27T03:22:35;11.37;;;3.90;;
63699;SDS011;49845;47.130;142.766;2023-05-27T03:25:07;9.83;;;3.20;;
63699;SDS011;49845;47.130;142.766;2023-05-27T03:27:38;22.47;;;3.43;;
63699;SDS011;49845;47.130;142.766;2023-05-27T03:30:09;15.13;;;2.57;;
63699;SDS011;49845;47.130;142.766;2023-05-27T03:32:40;10.53;;;2.93;;
63699;SDS011;49845;47.130;142.766;2023-05-27T03:35:11;19.63;;;3.60;;
63699;SDS011;49845;47.130;142.766;2023-05-27T03:37:41;18.10;;;3.73;;
63699;SDS011;49845;47.130;142.766;2023-05-27T03:40:15;17.73;;;3.40;;
63699;SDS011;49845;47.130;142.766;2023-05-27T03:42:45;19.53;;;3.63;;
63699;SDS011;49845;47.130;142.766;2023-05-27T03:45:16;16.13;;;3.40;;
63699;SDS011;49845;47.130;142.766;2023-05-27T03:47:47;8.43;;;3.33;;
63699;SDS011;49845;47.130;142.766;2023-05-27T03:50:17;13.63;;;3.47;;
63699;SDS011;49845;47.130;142.766;2023-05-27T03:52:48;9.57;;;3.00;;
63699;SDS011;49845;47.130;142.766;2023-05-27T03:55:20;15.93;;;3.17;;
63699;SDS011;49845;47.130;142.766;2023-05-27T03:57:51;11.10;;;2.30;;
63699;SDS011;49845;47.130;142.766;2023-05-27T04:00:21;14.63;;;2.80;;
63699;SDS011;49845;47.130;142.766;2023-05-27T04:02:52;15.10;;;2.90;;
63699;SDS011;49845;47.130;142.766;2023-05-27T04:05:24;13.83;;;3.03;;
63699;SDS011;49845;47.130;142.766;2023-05-27T04:07:54;13.03;;;3.47;;
63699;SDS011;49845;47.130;142.766;2023-05-27T04:10:26;15.63;;;3.63;;
63699;SDS011;49845;47.130;142.766;2023-05-27T04:12:57;21.60;;;3.90;;
63699;SDS011;49845;47.130;142.766;2023-05-27T04:15:28;75.17;;;7.27;;
63699;SDS011;49845;47.130;142.766;2023-05-27T04:17:58;13.07;;;3.90;;
63699;SDS011;49845;47.130;142.766;2023-05-27T04:20:34;17.97;;;4.33;;
63699;SDS011;49845;47.130;142.766;2023-05-27T04:23:07;15.80;;;3.97;;
63699;SDS011;49845;47.130;142.766;2023-05-27T04:25:39;11.50;;;3.30;;
63699;SDS011;49845;47.130;142.766;2023-05-27T04:28:10;15.23;;;4.53;;
63699;SDS011;49845;47.130;142.766;2023-05-27T04:30:41;17.57;;;3.77;;
63699;SDS011;49845;47.130;142.766;2023-05-27T04:33:14;13.00;;;3.67;;
63699;SDS011;49845;47.130;142.766;2023-05-27T04:35:45;15.87;;;3.50;;
63699;SDS011;49845;47.130;142.766;2023-05-27T04:38:16;14.03;;;3.73;;
63699;SDS011;49845;47.130;142.766;2023-05-27T04:40:50;17.37;;;4.30;;
63699;SDS011;49845;47.130;142.766;2023-05-27T04:43:22;12.27;;;3.57;;
63699;SDS011;49845;47.130;142.766;2023-05-27T04:45:54;13.73;;;4.07;;
63699;SDS011;49845;47.130;142.766;2023-05-27T04:48:27;18.93;;;3.97;;
63699;SDS011;49845;47.130;142.766;2023-05-27T04:50:57;15.63;;;3.67;;
63699;SDS011;49845;47.130;142.766;2023-05-27T04:53:28;13.40;;;3.60;;
63699;SDS011;49845;47.130;142.766;2023-05-27T04:56:00;8.53;;;3.70;;
63699;SDS011;49845;47.130;142.766;2023-05-27T04:58:30;8.63;;;3.20;;
63699;SDS011;49845;47.130;142.766;2023-05-27T05:01:01;16.60;;;3.97;;
63699;SDS011;49845;47.130;142.766;2023-05-27T05:03:32;11.63;;;3.70;;
63699;SDS011;49845;47.130;142.766;2023-05-27T05:06:19;13.17;;;3.27;;
63699;SDS011;49845;47.130;142.766;2023-05-27T05:08:50;11.57;;;3.40;;
63699;SDS011;49845;47.130;142.766;2023-05-27T05:11:23;17.83;;;3.80;;
63699;SDS011;49845;47.130;142.766;2023-05-27T05:13:54;10.57;;;3.57;;
63699;SDS011;49845;47.130;142.766;2023-05-27T05:16:25;13.70;;;4.20;;
63699;SDS011;49845;47.130;142.766;2023-05-27T05:18:56;19.07;;;3.60;;
63699;SDS011;49845;47.130;142.766;2023-05-27T05:21:26;8.17;;;3.20;;
63699;SDS011;49845;47.130;142.766;2023-05-27T05:23:57;25.20;;;3.63;;
63699;SDS011;49845;47.130;142.766;2023-05-27T05:26:29;10.63;;;3.20;;
63699;SDS011;49845;47.130;142.766;2023-05-27T05:29:00;41.07;;;5.43;;
63699;SDS011;49845;47.130;142.766;2023-05-27T05:31:31;14.47;;;4.00;;
63699;SDS011;49845;47.130;142.766;2023-05-27T05:34:01;13.90;;;3.20;;
63699;SDS011;49845;47.130;142.766;2023-05-27T05:36:32;8.57;;;3.60;;
63699;SDS011;49845;47.130;142.766;2023-05-27T05:39:03;11.10;;;3.63;;
63699;SDS011;49845;47.130;142.766;2023-05-27T05:41:35;19.87;;;4.17;;
63699;SDS011;49845;47.130;142.766;2023-05-27T05:44:06;14.90;;;3.83;;
63699;SDS011;49845;47.130;142.766;2023-05-27T05:46:37;21.63;;;3.93;;
63699;SDS011;49845;47.130;142.766;2023-05-27T05:49:07;6.63;;;3.43;;
63699;SDS011;49845;47.130;142.766;2023-05-27T05:51:38;14.37;;;4.10;;
63699;SDS011;49845;47.130;142.766;2023-05-27T05:54:08;13.17;;;4.23;;
63699;SDS011;49845;47.130;142.766;2023-05-27T05:56:41;16.43;;;4.50;;
63699;SDS011;49845;47.130;142.766;2023-05-27T05:59:11;12.47;;;4.07;;
63699;SDS011;49845;47.130;142.766;2023-05-27T06:01:42;13.67;;;4.50;;
63699;SDS011;49845;47.130;142.766;2023-05-27T06:04:12;20.13;;;3.80;;
63699;SDS011;49845;47.130;142.766;2023-05-27T06:06:43;10.40;;;3.90;;
63699;SDS011;49845;47.130;142.766;2023-05-27T06:09:13;23.40;;;5.00;;
63699;SDS011;49845;47.130;142.766;2023-05-27T06:11:45;22.63;;;5.33;;
63699;SDS011;49845;47.130;142.766;2023-05-27T06:14:16;11.10;;;3.70;;
63699;SDS011;49845;47.130;142.766;2023-05-27T06:16:47;24.47;;;4.73;;
63699;SDS011;49845;47.130;142.766;2023-05-27T06:19:17;14.03;;;3.47;;
63699;SDS011;49845;47.130;142.766;2023-05-27T06:21:48;13.13;;;4.43;;
63699;SDS011;49845;47.130;142.766;2023-05-27T06:24:19;13.63;;;4.23;;
63699;SDS011;49845;47.130;142.766;2023-05-27T06:26:51;10.90;;;4.13;;
63699;SDS011;49845;47.130;142.766;2023-05-27T06:29:21;13.60;;;4.40;;
63699;SDS011;49845;47.130;142.766;2023-05-27T06:31:52;17.67;;;4.20;;
63699;SDS011;49845;47.130;142.766;2023-05-27T06:34:24;9.07;;;3.50;;
63699;SDS011;49845;47.130;142.766;2023-05-27T06:36:54;13.03;;;4.07;;
63699;SDS011;49845;47.130;142.766;2023-05-27T06:39:25;10.53;;;4.37;;
63699;SDS011;49845;47.130;142.766;2023-05-27T06:41:57;9.33;;;4.50;;
63699;SDS011;49845;47.130;142.766;2023-05-27T06:44:29;10.17;;;4.63;;
63699;SDS011;49845;47.130;142.766;2023-05-27T06:47:00;10.27;;;4.30;;
63699;SDS011;49845;47.130;142.766;2023-05-27T06:49:31;8.43;;;3.70;;
63699;SDS011;49845;47.130;142.766;2023-05-27T06:52:02;21.87;;;3.93;;
63699;SDS011;49845;47.130;142.766;2023-05-27T06:54:37;13.03;;;4.60;;
63699;SDS011;49845;47.130;142.766;2023-05-27T06:57:09;12.63;;;4.30;;
63699;SDS011;49845;47.130;142.766;2023-05-27T06:59:40;11.80;;;3.87;;
63699;SDS011;49845;47.130;142.766;2023-05-27T07:02:10;12.30;;;4.27;;
63699;SDS011;49845;47.130;142.766;2023-05-27T07:04:41;12.20;;;4.20;;
63699;SDS011;49845;47.130;142.766;2023-05-27T07:07:11;12.03;;;3.87;;
63699;SDS011;49845;47.130;142.766;2023-05-27T07:09:42;13.87;;;4.10;;
63699;SDS011;49845;47.130;142.766;2023-05-27T07:12:14;16.07;;;4.20;;
63699;SDS011;49845;47.130;142.766;2023-05-27T07:14:45;12.57;;;4.83;;
63699;SDS011;49845;47.130;142.766;2023-05-27T07:17:16;13.63;;;4.60;;
63699;SDS011;49845;47.130;142.766;2023-05-27T07:19:47;12.83;;;4.53;;
63699;SDS011;49845;47.130;142.766;2023-05-27T07:22:18;11.80;;;3.83;;
63699;SDS011;49845;47.130;142.766;2023-05-27T07:24:48;13.47;;;4.10;;
63699;SDS011;49845;47.130;142.766;2023-05-27T07:27:20;12.83;;;4.40;;
63699;SDS011;49845;47.130;142.766;2023-05-27T07:29:51;14.20;;;4.20;;
63699;SDS011;49845;47.130;142.766;2023-05-27T07:32:21;16.53;;;4.50;;
63699;SDS011;49845;47.130;142.766;2023-05-27T07:34:53;16.70;;;4.57;;
63699;SDS011;49845;47.130;142.766;2023-05-27T07:37:23;13.60;;;4.00;;
63699;SDS011;49845;47.130;142.766;2023-05-27T07:39:54;14.83;;;4.07;;
63699;SDS011;49845;47.130;142.766;2023-05-27T07:42:26;13.33;;;4.13;;
63699;SDS011;49845;47.130;142.766;2023-05-27T07:44:59;13.37;;;4.10;;
63699;SDS011;49845;47.130;142.766;2023-05-27T07:47:30;10.80;;;4.43;;
63699;SDS011;49845;47.130;142.766;2023-05-27T07:50:01;10.97;;;4.57;;
63699;SDS011;49845;47.130;142.766;2023-05-27T07:52:32;17.60;;;4.20;;
63699;SDS011;49845;47.130;142.766;2023-05-27T07:55:02;12.30;;;4.17;;
63699;SDS011;49845;47.130;142.766;2023-05-27T07:57:35;9.90;;;4.03;;
63699;SDS011;49845;47.130;142.766;2023-05-27T08:00:06;24.30;;;4.83;;
63699;SDS011;49845;47.130;142.766;2023-05-27T08:02:37;13.87;;;4.27;;
63699;SDS011;49845;47.130;142.766;2023-05-27T08:05:09;12.23;;;3.57;;
63699;SDS011;49845;47.130;142.766;2023-05-27T08:07:40;17.23;;;3.57;;
63699;SDS011;49845;47.130;142.766;2023-05-27T08:10:10;20.50;;;4.07;;
63699;SDS011;49845;47.130;142.766;2023-05-27T08:12:42;12.40;;;3.80;;
63699;SDS011;49845;47.130;142.766;2023-05-27T08:15:13;16.20;;;4.30;;
63699;SDS011;49845;47.130;142.766;2023-05-27T08:17:43;14.33;;;3.83;;
63699;SDS011;49845;47.130;142.766;2023-05-27T08:20:14;13.57;;;3.70;;
63699;SDS011;49845;47.130;142.766;2023-05-27T08:22:45;17.30;;;4.23;;
63699;SDS011;49845;47.130;142.766;2023-05-27T08:25:15;11.80;;;3.50;;
63699;SDS011;49845;47.130;142.766;2023-05-27T08:27:48;15.90;;;4.67;;
63699;SDS011;49845;47.130;142.766;2023-05-27T08:30:20;17.13;;;4.20;;
63699;SDS011;49845;47.130;142.766;2023-05-27T08:32:50;12.13;;;3.83;;
63699;SDS011;49845;47.130;142.766;2023-05-27T08:35:21;16.90;;;3.87;;
63699;SDS011;49845;47.130;142.766;2023-05-27T08:37:52;18.27;;;5.50;;
63699;SDS011;49845;47.130;142.766;2023-05-27T08:40:22;19.50;;;4.07;;
63699;SDS011;49845;47.130;142.766;2023-05-27T08:42:55;31.60;;;6.37;;
63699;SDS011;49845;47.130;142.766;2023-05-27T08:45:26;16.47;;;4.37;;
63699;SDS011;49845;47.130;142.766;2023-05-27T08:47:58;223.03;;;30.40;;
63699;SDS011;49845;47.130;142.766;2023-05-27T08:50:29;11.00;;;4.30;;
63699;SDS011;49845;47.130;142.766;2023-05-27T08:52:59;30.23;;;19.10;;
63699;SDS011;49845;47.130;142.766;2023-05-27T08:55:31;26.77;;;10.33;;
63699;SDS011;49845;47.130;142.766;2023-05-27T08:58:05;32.57;;;11.87;;
63699;SDS011;49845;47.130;142.766;2023-05-27T09:00:38;30.43;;;13.13;;
63699;SDS011;49845;47.130;142.766;2023-05-27T09:03:12;15.60;;;6.63;;
63699;SDS011;49845;47.130;142.766;2023-05-27T09:05:43;18.77;;;7.97;;
63699;SDS011;49845;47.130;142.766;2023-05-27T09:08:16;24.23;;;8.37;;
63699;SDS011;49845;47.130;142.766;2023-05-27T09:10:58;16.80;;;5.83;;
63699;SDS011;49845;47.130;142.766;2023-05-27T09:13:30;18.97;;;6.70;;
63699;SDS011;49845;47.130;142.766;2023-05-27T09:16:09;23.20;;;6.20;;
63699;SDS011;49845;47.130;142.766;2023-05-27T09:19:04;24.93;;;6.13;;
63699;SDS011;49845;47.130;142.766;2023-05-27T09:21:47;20.43;;;6.30;;
63699;SDS011;49845;47.130;142.766;2023-05-27T09:24:22;24.10;;;6.80;;
63699;SDS011;49845;47.130;142.766;2023-05-27T09:26:53;19.03;;;6.37;;
63699;SDS011;49845;47.130;142.766;2023-05-27T09:29:26;21.67;;;7.17;;
63699;SDS011;49845;47.130;142.766;2023-05-27T09:32:02;16.57;;;6.93;;
63699;SDS011;49845;47.130;142.766;2023-05-27T09:34:37;18.00;;;7.10;;
63699;SDS011;49845;47.130;142.766;2023-05-27T09:37:12;21.03;;;6.10;;
63699;SDS011;49845;47.130;142.766;2023-05-27T09:39:43;22.53;;;6.43;;
63699;SDS011;49845;47.130;142.766;2023-05-27T09:42:16;18.13;;;6.20;;
63699;SDS011;49845;47.130;142.766;2023-05-27T09:44:49;23.53;;;7.17;;
63699;SDS011;49845;47.130;142.766;2023-05-27T09:47:20;19.60;;;6.50;;
63699;SDS011;49845;47.130;142.766;2023-05-27T09:49:52;24.37;;;7.07;;
63699;SDS011;49845;47.130;142.766;2023-05-27T09:52:24;19.83;;;6.30;;
63699;SDS011;49845;47.130;142.766;2023-05-27T09:55:10;30.43;;;6.73;;
63699;SDS011;49845;47.130;142.766;2023-05-27T09:57:44;19.77;;;6.57;;
63699;SDS011;49845;47.130;142.766;2023-05-27T10:00:18;27.47;;;6.57;;
63699;SDS011;49845;47.130;142.766;2023-05-27T10:02:50;25.00;;;7.00;;
63699;SDS011;49845;47.130;142.766;2023-05-27T10:05:21;21.00;;;7.50;;
63699;SDS011;49845;47.130;142.766;2023-05-27T10:07:52;31.43;;;8.67;;
63699;SDS011;49845;47.130;142.766;2023-05-27T10:10:41;23.20;;;8.17;;
63699;SDS011;49845;47.130;142.766;2023-05-27T10:13:14;26.03;;;7.73;;
63699;SDS011;49845;47.130;142.766;2023-05-27T10:15:48;26.07;;;7.97;;
63699;SDS011;49845;47.130;142.766;2023-05-27T10:18:34;34.93;;;8.57;;
63699;SDS011;49845;47.130;142.766;2023-05-27T10:21:17;34.35;;;8.20;;
63699;SDS011;49845;47.130;142.766;2023-05-27T10:23:53;32.17;;;7.80;;
63699;SDS011;49845;47.130;142.766;2023-05-27T10:26:33;29.83;;;8.87;;
63699;SDS011;49845;47.130;142.766;2023-05-27T10:29:11;26.00;;;8.47;;
63699;SDS011;49845;47.130;142.766;2023-05-27T10:31:49;34.28;;;9.60;;
63699;SDS011;49845;47.130;142.766;2023-05-27T10:34:21;29.67;;;8.83;;
63699;SDS011;49845;47.130;142.766;2023-05-27T10:37:04;25.63;;;7.53;;
63699;SDS011;49845;47.130;142.766;2023-05-27T10:39:45;23.17;;;8.10;;
63699;SDS011;49845;47.130;142.766;2023-05-27T10:42:37;29.03;;;8.10;;
63699;SDS011;49845;47.130;142.766;2023-05-27T10:48:04;24.80;;;9.40;;
63699;SDS011;49845;47.130;142.766;2023-05-27T10:50:57;48.83;;;11.73;;
63699;SDS011;49845;47.130;142.766;2023-05-27T10:53:34;25.73;;;10.10;;
63699;SDS011;49845;47.130;142.766;2023-05-27T10:56:10;26.70;;;10.17;;
63699;SDS011;49845;47.130;142.766;2023-05-27T10:58:41;27.93;;;8.93;;
63699;SDS011;49845;47.130;142.766;2023-05-27T11:01:14;21.00;;;8.17;;
63699;SDS011;49845;47.130;142.766;2023-05-27T11:03:52;23.67;;;8.57;;
63699;SDS011;49845;47.130;142.766;2023-05-27T11:06:23;27.33;;;8.13;;
63699;SDS011;49845;47.130;142.766;2023-05-27T11:09:01;24.50;;;8.43;;
63699;SDS011;49845;47.130;142.766;2023-05-27T11:11:33;27.80;;;9.10;;
63699;SDS011;49845;47.130;142.766;2023-05-27T11:14:06;30.13;;;8.70;;
63699;SDS011;49845;47.130;142.766;2023-05-27T11:16:37;30.80;;;8.00;;
63699;SDS011;49845;47.130;142.766;2023-05-27T11:19:12;26.13;;;8.95;;
63699;SDS011;49845;47.130;142.766;2023-05-27T11:21:48;31.13;;;9.63;;
63699;SDS011;49845;47.130;142.766;2023-05-27T11:24:19;28.77;;;9.23;;
63699;SDS011;49845;47.130;142.766;2023-05-27T11:26:50;24.48;;;8.90;;
63699;SDS011;49845;47.130;142.766;2023-05-27T11:29:22;29.58;;;10.07;;
63699;SDS011;49845;47.130;142.766;2023-05-27T11:31:57;24.73;;;9.27;;
63699;SDS011;49845;47.130;142.766;2023-05-27T11:34:30;21.70;;;8.77;;
63699;SDS011;49845;47.130;142.766;2023-05-27T11:37:04;24.63;;;8.75;;
63699;SDS011;49845;47.130;142.766;2023-05-27T11:39:48;26.98;;;9.27;;
63699;SDS011;49845;47.130;142.766;2023-05-27T11:42:22;30.10;;;9.07;;
63699;SDS011;49845;47.130;142.766;2023-05-27T11:45:01;34.50;;;10.60;;
63699;SDS011;49845;47.130;142.766;2023-05-27T11:47:35;29.02;;;9.68;;
63699;SDS011;49845;47.130;142.766;2023-05-27T11:50:16;31.85;;;9.98;;
63699;SDS011;49845;47.130;142.766;2023-05-27T11:52:53;27.58;;;9.10;;
63699;SDS011;49845;47.130;142.766;2023-05-27T11:55:30;30.30;;;10.52;;
63699;SDS011;49845;47.130;142.766;2023-05-27T11:58:06;32.50;;;11.30;;
63699;SDS011;49845;47.130;142.766;2023-05-27T12:00:38;31.85;;;9.63;;
63699;SDS011;49845;47.130;142.766;2023-05-27T12:03:15;30.23;;;9.95;;
63699;SDS011;49845;47.130;142.766;2023-05-27T12:05:53;39.53;;;14.15;;
63699;SDS011;49845;47.130;142.766;2023-05-27T12:08:25;41.10;;;13.55;;
63699;SDS011;49845;47.130;142.766;2023-05-27T12:10:56;34.22;;;10.40;;
63699;SDS011;49845;47.130;142.766;2023-05-27T12:13:27;29.75;;;9.77;;
63699;SDS011;49845;47.130;142.766;2023-05-27T12:16:02;31.20;;;10.35;;
63699;SDS011;49845;47.130;142.766;2023-05-27T12:18:40;36.92;;;9.85;;
63699;SDS011;49845;47.130;142.766;2023-05-27T12:21:12;37.45;;;10.13;;
63699;SDS011;49845;47.130;142.766;2023-05-27T12:23:43;33.60;;;10.20;;
63699;SDS011;49845;47.130;142.766;2023-05-27T12:26:17;37.38;;;10.13;;
63699;SDS011;49845;47.130;142.766;2023-05-27T12:28:53;27.65;;;9.80;;
63699;SDS011;49845;47.130;142.766;2023-05-27T12:31:30;32.72;;;10.32;;
63699;SDS011;49845;47.130;142.766;2023-05-27T12:34:07;30.00;;;10.00;;
63699;SDS011;49845;47.130;142.766;2023-05-27T12:36:42;31.60;;;9.90;;
63699;SDS011;49845;47.130;142.766;2023-05-27T12:39:12;31.65;;;10.60;;
63699;SDS011;49845;47.130;142.766;2023-05-27T12:41:53;27.58;;;9.68;;
63699;SDS011;49845;47.130;142.766;2023-05-27T12:44:26;29.98;;;9.82;;
63699;SDS011;49845;47.130;142.766;2023-05-27T12:46:57;34.60;;;10.55;;
63699;SDS011;49845;47.130;142.766;2023-05-27T12:49:29;25.50;;;10.68;;
63699;SDS011;49845;47.130;142.766;2023-05-27T12:52:15;28.08;;;9.38;;
63699;SDS011;49845;47.130;142.766;2023-05-27T12:54:49;30.63;;;10.23;;
63699;SDS011;49845;47.130;142.766;2023-05-27T12:57:22;32.65;;;11.02;;
63699;SDS011;49845;47.130;142.766;2023-05-27T12:59:53;31.20;;;10.45;;
63699;SDS011;49845;47.130;142.766;2023-05-27T13:02:24;37.28;;;10.45;;
63699;SDS011;49845;47.130;142.766;2023-05-27T13:04:57;30.58;;;11.18;;
63699;SDS011;49845;47.130;142.766;2023-05-27T13:07:35;27.23;;;10.57;;
63699;SDS011;49845;47.130;142.766;2023-05-27T13:10:10;33.38;;;10.95;;
63699;SDS011;49845;47.130;142.766;2023-05-27T13:12:48;38.13;;;10.82;;
63699;SDS011;49845;47.130;142.766;2023-05-27T13:15:19;27.90;;;9.63;;
63699;SDS011;49845;47.130;142.766;2023-05-27T13:17:57;31.60;;;10.10;;
63699;SDS011;49845;47.130;142.766;2023-05-27T13:20:32;31.15;;;8.90;;
63699;SDS011;49845;47.130;142.766;2023-05-27T13:23:05;29.00;;;9.68;;
63699;SDS011;49845;47.130;142.766;2023-05-27T13:25:39;28.67;;;9.55;;
63699;SDS011;49845;47.130;142.766;2023-05-27T13:28:10;25.90;;;9.68;;
63699;SDS011;49845;47.130;142.766;2023-05-27T13:30:41;30.92;;;9.93;;
63699;SDS011;49845;47.130;142.766;2023-05-27T13:33:11;26.13;;;9.65;;
63699;SDS011;49845;47.130;142.766;2023-05-27T13:35:45;30.77;;;10.15;;
63699;SDS011;49845;47.130;142.766;2023-05-27T13:38:18;34.83;;;11.07;;
63699;SDS011;49845;47.130;142.766;2023-05-27T13:40:49;33.05;;;11.55;;
63699;SDS011;49845;47.130;142.766;2023-05-27T13:43:20;27.17;;;10.00;;
63699;SDS011;49845;47.130;142.766;2023-05-27T13:45:55;25.52;;;10.23;;
63699;SDS011;49845;47.130;142.766;2023-05-27T13:48:29;33.40;;;11.15;;
63699;SDS011;49845;47.130;142.766;2023-05-27T13:51:04;40.33;;;11.18;;
63699;SDS011;49845;47.130;142.766;2023-05-27T13:53:42;28.83;;;10.18;;
63699;SDS011;49845;47.130;142.766;2023-05-27T13:58:49;30.48;;;10.50;;
63699;SDS011;49845;47.130;142.766;2023-05-27T14:01:23;33.30;;;10.98;;
63699;SDS011;49845;47.130;142.766;2023-05-27T14:03:55;29.90;;;10.82;;
63699;SDS011;49845;47.130;142.766;2023-05-27T14:06:27;34.40;;;11.15;;
63699;SDS011;49845;47.130;142.766;2023-05-27T14:09:01;38.13;;;11.45;;
63699;SDS011;49845;47.130;142.766;2023-05-27T14:11:36;34.05;;;11.00;;
63699;SDS011;49845;47.130;142.766;2023-05-27T14:14:09;34.75;;;10.52;;
63699;SDS011;49845;47.130;142.766;2023-05-27T14:16:41;30.10;;;9.65;;
63699;SDS011;49845;47.130;142.766;2023-05-27T14:19:14;32.58;;;10.90;;
63699;SDS011;49845;47.130;142.766;2023-05-27T14:21:47;34.03;;;9.88;;
63699;SDS011;49845;47.130;142.766;2023-05-27T14:24:20;26.48;;;10.43;;
63699;SDS011;49845;47.130;142.766;2023-05-27T14:26:56;34.30;;;10.20;;
63699;SDS011;49845;47.130;142.766;2023-05-27T14:29:52;36.92;;;10.90;;
63699;SDS011;49845;47.130;142.766;2023-05-27T14:32:57;33.08;;;11.27;;
63699;SDS011;49845;47.130;142.766;2023-05-27T14:36:00;33.05;;;10.35;;
63699;SDS011;49845;47.130;142.766;2023-05-27T14:38:56;33.13;;;10.20;;
63699;SDS011;49845;47.130;142.766;2023-05-27T14:41:32;34.55;;;9.20;;
63699;SDS011;49845;47.130;142.766;2023-05-27T14:44:05;36.60;;;11.82;;
63699;SDS011;49845;47.130;142.766;2023-05-27T14:46:39;35.42;;;12.10;;
63699;SDS011;49845;47.130;142.766;2023-05-27T14:49:11;29.42;;;10.55;;